sensor_id;sensor_type;location;lat;lon;timestamp;P1;durP1;ratioP1;P2;durP2;ratioP2
55350;SDS011;62194;49.480;10.986;2023-08-06T00:00:31;4.85;;;3.85;;
55350;SDS011;62194;49.480;10.986;2023-08-06T00:01:29;4.74;;;4.01;;
55350;SDS011;62194;49.480;10.986;2023-08-06T00:08:10;5.72;;;3.92;;
55350;SDS011;62194;49.480;10.986;2023-08-06T00:08:24;6.11;;;3.95;;
55350;SDS011;62194;49.480;10.986;2023-08-06T00:08:33;4.55;;;3.90;;
55350;SDS011;62194;49.480;10.986;2023-08-06T00:08:51;4.19;;;3.79;;
55350;SDS011;62194;49.480;10.986;2023-08-06T00:09:05;4.04;;;3.64;;
55350;SDS011;62194;49.480;10.986;2023-08-06T00:09:20;3.86;;;3.49;;
55350;SDS011;62194;49.480;10.986;2023-08-06T00:09:45;3.88;;;3.50;;
55350;SDS011;62194;49.480;10.986;2023-08-06T00:09:53;4.28;;;3.56;;
55350;SDS011;62194;49.480;10.986;2023-08-06T00:10:07;5.03;;;3.66;;
55350;SDS011;62194;49.480;10.986;2023-08-06T00:10:25;5.17;;;3.85;;
55350;SDS011;62194;49.480;10.986;2023-08-06T00:11:27;4.53;;;3.90;;
55350;SDS011;62194;49.480;10.986;2023-08-06T00:13:03;4.95;;;3.94;;
55350;SDS011;62194;49.480;10.986;2023-08-06T00:13:50;5.55;;;3.96;;
55350;SDS011;62194;49.480;10.986;2023-08-06T00:14:00;5.34;;;3.74;;
55350;SDS011;62194;49.480;10.986;2023-08-06T00:14:14;5.47;;;3.51;;
55350;SDS011;62194;49.480;10.986;2023-08-06T00:14:23;4.91;;;3.44;;
55350;SDS011;62194;49.480;10.986;2023-08-06T00:15:52;4.14;;;3.66;;
55350;SDS011;62194;49.480;10.986;2023-08-06T00:16:11;5.13;;;3.97;;
55350;SDS011;62194;49.480;10.986;2023-08-06T00:16:36;5.38;;;4.18;;
55350;SDS011;62194;49.480;10.986;2023-08-06T00:17:42;4.18;;;3.71;;
55350;SDS011;62194;49.480;10.986;2023-08-06T00:18:13;4.31;;;3.66;;
55350;SDS011;62194;49.480;10.986;2023-08-06T00:20:01;5.18;;;4.01;;
55350;SDS011;62194;49.480;10.986;2023-08-06T00:21:25;4.34;;;3.79;;
55350;SDS011;62194;49.480;10.986;2023-08-06T00:21:48;4.01;;;3.49;;
55350;SDS011;62194;49.480;10.986;2023-08-06T00:21:59;4.67;;;3.33;;
55350;SDS011;62194;49.480;10.986;2023-08-06T00:22:06;5.21;;;3.52;;
55350;SDS011;62194;49.480;10.986;2023-08-06T00:22:23;5.30;;;3.80;;
55350;SDS011;62194;49.480;10.986;2023-08-06T00:22:49;5.10;;;3.74;;
55350;SDS011;62194;49.480;10.986;2023-08-06T00:22:54;4.07;;;3.54;;
55350;SDS011;62194;49.480;10.986;2023-08-06T00:23:32;4.54;;;3.78;;
55350;SDS011;62194;49.480;10.986;2023-08-06T00:23:43;4.25;;;3.71;;
55350;SDS011;62194;49.480;10.986;2023-08-06T00:23:59;4.00;;;3.60;;
55350;SDS011;62194;49.480;10.986;2023-08-06T00:24:09;4.93;;;3.71;;
55350;SDS011;62194;49.480;10.986;2023-08-06T00:24:27;4.59;;;3.74;;
55350;SDS011;62194;49.480;10.986;2023-08-06T00:24:41;3.87;;;3.47;;
55350;SDS011;62194;49.480;10.986;2023-08-06T00:24:46;4.00;;;3.44;;
55350;SDS011;62194;49.480;10.986;2023-08-06T00:25:09;4.11;;;3.41;;
55350;SDS011;62194;49.480;10.986;2023-08-06T00:25:37;4.03;;;3.42;;
55350;SDS011;62194;49.480;10.986;2023-08-06T00:25:48;4.41;;;3.40;;
55350;SDS011;62194;49.480;10.986;2023-08-06T00:26:29;4.26;;;3.40;;
55350;SDS011;62194;49.480;10.986;2023-08-06T00:26:34;4.40;;;3.43;;
55350;SDS011;62194;49.480;10.986;2023-08-06T00:26:39;4.27;;;3.47;;
55350;SDS011;62194;49.480;10.986;2023-08-06T00:26:44;4.20;;;3.50;;
55350;SDS011;62194;49.480;10.986;2023-08-06T00:26:49;4.20;;;3.53;;
55350;SDS011;62194;49.480;10.986;2023-08-06T00:26:54;4.07;;;3.60;;
55350;SDS011;62194;49.480;10.986;2023-08-06T00:26:59;4.00;;;3.57;;
55350;SDS011;62194;49.480;10.986;2023-08-06T00:27:05;4.27;;;3.60;;
55350;SDS011;62194;49.480;10.986;2023-08-06T00:27:10;4.23;;;3.60;;
55350;SDS011;62194;49.480;10.986;2023-08-06T00:27:15;4.27;;;3.60;;
55350;SDS011;62194;49.480;10.986;2023-08-06T00:27:20;4.13;;;3.47;;
55350;SDS011;62194;49.480;10.986;2023-08-06T00:27:26;4.00;;;3.57;;
55350;SDS011;62194;49.480;10.986;2023-08-06T00:27:31;3.97;;;3.57;;
55350;SDS011;62194;49.480;10.986;2023-08-06T00:27:37;3.97;;;3.60;;
55350;SDS011;62194;49.480;10.986;2023-08-06T00:27:43;3.90;;;3.50;;
55350;SDS011;62194;49.480;10.986;2023-08-06T00:27:48;3.90;;;3.50;;
55350;SDS011;62194;49.480;10.986;2023-08-06T00:27:53;3.92;;;3.53;;
55350;SDS011;62194;49.480;10.986;2023-08-06T00:27:59;3.87;;;3.30;;
55350;SDS011;62194;49.480;10.986;2023-08-06T00:28:04;4.03;;;3.23;;
55350;SDS011;62194;49.480;10.986;2023-08-06T00:28:09;3.85;;;3.20;;
55350;SDS011;62194;49.480;10.986;2023-08-06T00:28:14;3.77;;;3.37;;
55350;SDS011;62194;49.480;10.986;2023-08-06T00:28:20;3.97;;;3.40;;
55350;SDS011;62194;49.480;10.986;2023-08-06T00:28:25;4.23;;;3.40;;
55350;SDS011;62194;49.480;10.986;2023-08-06T00:28:30;3.97;;;3.50;;
55350;SDS011;62194;49.480;10.986;2023-08-06T00:28:35;4.18;;;3.50;;
55350;SDS011;62194;49.480;10.986;2023-08-06T00:28:40;4.20;;;3.50;;
55350;SDS011;62194;49.480;10.986;2023-08-06T00:28:45;4.77;;;3.40;;
55350;SDS011;62194;49.480;10.986;2023-08-06T00:28:51;4.63;;;3.37;;
55350;SDS011;62194;49.480;10.986;2023-08-06T00:28:56;4.63;;;3.30;;
55350;SDS011;62194;49.480;10.986;2023-08-06T00:29:01;4.73;;;3.20;;
55350;SDS011;62194;49.480;10.986;2023-08-06T00:29:07;4.53;;;3.20;;
55350;SDS011;62194;49.480;10.986;2023-08-06T00:29:12;4.57;;;3.30;;
55350;SDS011;62194;49.480;10.986;2023-08-06T00:29:17;4.37;;;3.30;;
55350;SDS011;62194;49.480;10.986;2023-08-06T00:29:22;4.20;;;3.35;;
55350;SDS011;62194;49.480;10.986;2023-08-06T00:29:27;4.37;;;3.50;;
55350;SDS011;62194;49.480;10.986;2023-08-06T00:29:32;4.33;;;3.60;;
55350;SDS011;62194;49.480;10.986;2023-08-06T00:29:38;4.37;;;3.60;;
55350;SDS011;62194;49.480;10.986;2023-08-06T00:29:43;4.30;;;3.50;;
55350;SDS011;62194;49.480;10.986;2023-08-06T00:29:48;4.10;;;3.50;;
55350;SDS011;62194;49.480;10.986;2023-08-06T00:29:53;4.13;;;3.60;;
55350;SDS011;62194;49.480;10.986;2023-08-06T00:29:59;4.10;;;3.67;;
55350;SDS011;62194;49.480;10.986;2023-08-06T00:30:04;4.00;;;3.60;;
55350;SDS011;62194;49.480;10.986;2023-08-06T00:30:09;4.00;;;3.60;;
55350;SDS011;62194;49.480;10.986;2023-08-06T00:30:15;3.93;;;3.53;;
55350;SDS011;62194;49.480;10.986;2023-08-06T00:30:20;4.03;;;3.50;;
55350;SDS011;62194;49.480;10.986;2023-08-06T00:30:25;3.90;;;3.42;;
55350;SDS011;62194;49.480;10.986;2023-08-06T00:30:30;3.80;;;3.30;;
55350;SDS011;62194;49.480;10.986;2023-08-06T00:30:36;4.30;;;3.30;;
55350;SDS011;62194;49.480;10.986;2023-08-06T00:30:41;4.32;;;3.33;;
55350;SDS011;62194;49.480;10.986;2023-08-06T00:30:46;4.43;;;3.33;;
55350;SDS011;62194;49.480;10.986;2023-08-06T00:30:56;4.20;;;3.30;;
55350;SDS011;62194;49.480;10.986;2023-08-06T00:31:02;4.17;;;3.30;;
55350;SDS011;62194;49.480;10.986;2023-08-06T00:31:07;3.65;;;3.17;;
55350;SDS011;62194;49.480;10.986;2023-08-06T00:31:12;3.57;;;3.20;;
55350;SDS011;62194;49.480;10.986;2023-08-06T00:31:17;3.73;;;3.33;;
55350;SDS011;62194;49.480;10.986;2023-08-06T00:31:23;3.60;;;3.30;;
55350;SDS011;62194;49.480;10.986;2023-08-06T00:31:28;3.57;;;3.27;;
55350;SDS011;62194;49.480;10.986;2023-08-06T00:31:33;3.60;;;3.30;;
55350;SDS011;62194;49.480;10.986;2023-08-06T00:31:38;3.70;;;3.40;;
55350;SDS011;62194;49.480;10.986;2023-08-06T00:31:43;3.67;;;3.37;;
55350;SDS011;62194;49.480;10.986;2023-08-06T00:31:48;3.57;;;3.27;;
55350;SDS011;62194;49.480;10.986;2023-08-06T00:31:54;3.67;;;3.37;;
55350;SDS011;62194;49.480;10.986;2023-08-06T00:31:59;3.90;;;3.50;;
55350;SDS011;62194;49.480;10.986;2023-08-06T00:32:04;3.90;;;3.50;;
55350;SDS011;62194;49.480;10.986;2023-08-06T00:32:09;3.90;;;3.50;;
55350;SDS011;62194;49.480;10.986;2023-08-06T00:32:14;3.90;;;3.50;;
55350;SDS011;62194;49.480;10.986;2023-08-06T00:32:20;4.13;;;3.53;;
55350;SDS011;62194;49.480;10.986;2023-08-06T00:32:25;4.55;;;3.58;;
55350;SDS011;62194;49.480;10.986;2023-08-06T00:32:30;4.30;;;3.40;;
55350;SDS011;62194;49.480;10.986;2023-08-06T00:32:35;4.37;;;3.37;;
55350;SDS011;62194;49.480;10.986;2023-08-06T00:32:40;4.47;;;3.40;;
55350;SDS011;62194;49.480;10.986;2023-08-06T00:32:45;4.67;;;3.47;;
55350;SDS011;62194;49.480;10.986;2023-08-06T00:32:51;4.10;;;3.28;;
55350;SDS011;62194;49.480;10.986;2023-08-06T00:32:56;3.63;;;3.30;;
55350;SDS011;62194;49.480;10.986;2023-08-06T00:33:01;3.80;;;3.40;;
55350;SDS011;62194;49.480;10.986;2023-08-06T00:33:06;3.80;;;3.40;;
55350;SDS011;62194;49.480;10.986;2023-08-06T00:33:11;3.80;;;3.40;;
55350;SDS011;62194;49.480;10.986;2023-08-06T00:33:17;3.87;;;3.50;;
55350;SDS011;62194;49.480;10.986;2023-08-06T00:33:22;4.40;;;3.72;;
55350;SDS011;62194;49.480;10.986;2023-08-06T00:33:27;4.47;;;3.70;;
55350;SDS011;62194;49.480;10.986;2023-08-06T00:33:32;4.80;;;3.70;;
55350;SDS011;62194;49.480;10.986;2023-08-06T00:33:38;4.53;;;3.65;;
55350;SDS011;62194;49.480;10.986;2023-08-06T00:33:43;4.53;;;3.63;;
55350;SDS011;62194;49.480;10.986;2023-08-06T00:33:48;3.93;;;3.43;;
55350;SDS011;62194;49.480;10.986;2023-08-06T00:33:53;3.73;;;3.33;;
55350;SDS011;62194;49.480;10.986;2023-08-06T00:33:58;3.60;;;3.30;;
55350;SDS011;62194;49.480;10.986;2023-08-06T00:34:03;3.50;;;3.20;;
55350;SDS011;62194;49.480;10.986;2023-08-06T00:34:09;3.53;;;3.23;;
55350;SDS011;62194;49.480;10.986;2023-08-06T00:34:14;3.50;;;3.20;;
55350;SDS011;62194;49.480;10.986;2023-08-06T00:34:19;3.73;;;3.33;;
55350;SDS011;62194;49.480;10.986;2023-08-06T00:34:24;4.00;;;3.40;;
55350;SDS011;62194;49.480;10.986;2023-08-06T00:34:29;4.00;;;3.40;;
55350;SDS011;62194;49.480;10.986;2023-08-06T00:34:34;4.00;;;3.50;;
55350;SDS011;62194;49.480;10.986;2023-08-06T00:34:40;4.07;;;3.60;;
55350;SDS011;62194;49.480;10.986;2023-08-06T00:34:45;3.97;;;3.50;;
55350;SDS011;62194;49.480;10.986;2023-08-06T00:34:50;3.80;;;3.40;;
55350;SDS011;62194;49.480;10.986;2023-08-06T00:34:55;4.07;;;3.43;;
55350;SDS011;62194;49.480;10.986;2023-08-06T00:35:01;4.18;;;3.58;;
55350;SDS011;62194;49.480;10.986;2023-08-06T00:35:07;4.03;;;3.47;;
55350;SDS011;62194;49.480;10.986;2023-08-06T00:35:12;4.00;;;3.40;;
55350;SDS011;62194;49.480;10.986;2023-08-06T00:35:18;3.95;;;3.40;;
55350;SDS011;62194;49.480;10.986;2023-08-06T00:35:23;3.67;;;3.30;;
55350;SDS011;62194;49.480;10.986;2023-08-06T00:35:29;3.73;;;3.33;;
55350;SDS011;62194;49.480;10.986;2023-08-06T00:35:34;3.58;;;3.22;;
55350;SDS011;62194;49.480;10.986;2023-08-06T00:35:39;3.60;;;3.20;;
55350;SDS011;62194;49.480;10.986;2023-08-06T00:35:44;3.60;;;3.17;;
55350;SDS011;62194;49.480;10.986;2023-08-06T00:35:50;3.87;;;3.30;;
55350;SDS011;62194;49.480;10.986;2023-08-06T00:35:55;3.60;;;3.20;;
55350;SDS011;62194;49.480;10.986;2023-08-06T00:36:00;3.78;;;3.20;;
55350;SDS011;62194;49.480;10.986;2023-08-06T00:36:05;3.73;;;3.20;;
55350;SDS011;62194;49.480;10.986;2023-08-06T00:36:11;3.70;;;3.23;;
55350;SDS011;62194;49.480;10.986;2023-08-06T00:36:16;3.77;;;3.27;;
55350;SDS011;62194;49.480;10.986;2023-08-06T00:36:21;3.57;;;3.10;;
55350;SDS011;62194;49.480;10.986;2023-08-06T00:36:26;3.73;;;3.23;;
55350;SDS011;62194;49.480;10.986;2023-08-06T00:36:31;3.83;;;3.40;;
55350;SDS011;62194;49.480;10.986;2023-08-06T00:36:36;4.00;;;3.50;;
55350;SDS011;62194;49.480;10.986;2023-08-06T00:36:42;4.07;;;3.53;;
55350;SDS011;62194;49.480;10.986;2023-08-06T00:36:47;4.20;;;3.70;;
55350;SDS011;62194;49.480;10.986;2023-08-06T00:36:52;4.28;;;3.80;;
55350;SDS011;62194;49.480;10.986;2023-08-06T00:36:58;4.30;;;3.83;;
55350;SDS011;62194;49.480;10.986;2023-08-06T00:37:04;4.17;;;3.77;;
55350;SDS011;62194;49.480;10.986;2023-08-06T00:37:09;4.10;;;3.70;;
55350;SDS011;62194;49.480;10.986;2023-08-06T00:37:15;4.10;;;3.70;;
55350;SDS011;62194;49.480;10.986;2023-08-06T00:37:20;4.10;;;3.70;;
55350;SDS011;62194;49.480;10.986;2023-08-06T00:37:25;4.10;;;3.60;;
55350;SDS011;62194;49.480;10.986;2023-08-06T00:37:30;4.03;;;3.50;;
55350;SDS011;62194;49.480;10.986;2023-08-06T00:37:35;4.07;;;3.60;;
55350;SDS011;62194;49.480;10.986;2023-08-06T00:37:41;4.07;;;3.60;;
55350;SDS011;62194;49.480;10.986;2023-08-06T00:37:46;4.03;;;3.60;;
55350;SDS011;62194;49.480;10.986;2023-08-06T00:37:52;4.70;;;3.63;;
55350;SDS011;62194;49.480;10.986;2023-08-06T00:37:57;5.03;;;3.67;;
55350;SDS011;62194;49.480;10.986;2023-08-06T00:38:02;4.93;;;3.60;;
55350;SDS011;62194;49.480;10.986;2023-08-06T00:38:08;5.97;;;3.67;;
55350;SDS011;62194;49.480;10.986;2023-08-06T00:38:13;5.90;;;3.67;;
55350;SDS011;62194;49.480;10.986;2023-08-06T00:38:18;5.95;;;3.65;;
55350;SDS011;62194;49.480;10.986;2023-08-06T00:38:23;5.97;;;3.50;;
55350;SDS011;62194;49.480;10.986;2023-08-06T00:38:28;5.70;;;3.50;;
55350;SDS011;62194;49.480;10.986;2023-08-06T00:38:33;5.43;;;3.43;;
55350;SDS011;62194;49.480;10.986;2023-08-06T00:38:39;5.00;;;3.40;;
55350;SDS011;62194;49.480;10.986;2023-08-06T00:38:44;5.03;;;3.30;;
55350;SDS011;62194;49.480;10.986;2023-08-06T00:38:49;4.90;;;3.30;;
55350;SDS011;62194;49.480;10.986;2023-08-06T00:38:54;4.57;;;3.40;;
55350;SDS011;62194;49.480;10.986;2023-08-06T00:39:00;4.37;;;3.33;;
55350;SDS011;62194;49.480;10.986;2023-08-06T00:39:05;4.27;;;3.37;;
55350;SDS011;62194;49.480;10.986;2023-08-06T00:39:12;4.50;;;3.40;;
55350;SDS011;62194;49.480;10.986;2023-08-06T00:39:17;4.57;;;3.43;;
55350;SDS011;62194;49.480;10.986;2023-08-06T00:39:22;4.30;;;3.30;;
55350;SDS011;62194;49.480;10.986;2023-08-06T00:39:28;4.17;;;3.40;;
55350;SDS011;62194;49.480;10.986;2023-08-06T00:39:33;4.30;;;3.40;;
55350;SDS011;62194;49.480;10.986;2023-08-06T00:39:38;4.13;;;3.40;;
55350;SDS011;62194;49.480;10.986;2023-08-06T00:39:43;3.70;;;3.30;;
55350;SDS011;62194;49.480;10.986;2023-08-06T00:39:49;3.67;;;3.30;;
55350;SDS011;62194;49.480;10.986;2023-08-06T00:39:54;3.63;;;3.33;;
55350;SDS011;62194;49.480;10.986;2023-08-06T00:39:59;3.63;;;3.30;;
55350;SDS011;62194;49.480;10.986;2023-08-06T00:40:04;3.53;;;3.23;;
55350;SDS011;62194;49.480;10.986;2023-08-06T00:40:10;3.45;;;3.15;;
55350;SDS011;62194;49.480;10.986;2023-08-06T00:40:15;3.63;;;3.30;;
55350;SDS011;62194;49.480;10.986;2023-08-06T00:40:20;3.83;;;3.43;;
55350;SDS011;62194;49.480;10.986;2023-08-06T00:40:27;4.18;;;3.62;;
55350;SDS011;62194;49.480;10.986;2023-08-06T00:40:35;4.58;;;3.80;;
55350;SDS011;62194;49.480;10.986;2023-08-06T00:40:40;4.70;;;3.90;;
55350;SDS011;62194;49.480;10.986;2023-08-06T00:40:45;4.67;;;3.90;;
55350;SDS011;62194;49.480;10.986;2023-08-06T00:40:50;4.73;;;3.80;;
55350;SDS011;62194;49.480;10.986;2023-08-06T00:40:55;4.30;;;3.60;;
55350;SDS011;62194;49.480;10.986;2023-08-06T00:41:00;3.90;;;3.43;;
55350;SDS011;62194;49.480;10.986;2023-08-06T00:41:06;4.53;;;3.40;;
55350;SDS011;62194;49.480;10.986;2023-08-06T00:41:11;4.82;;;3.50;;
55350;SDS011;62194;49.480;10.986;2023-08-06T00:41:16;4.57;;;3.47;;
55350;SDS011;62194;49.480;10.986;2023-08-06T00:41:21;4.47;;;3.50;;
55350;SDS011;62194;49.480;10.986;2023-08-06T00:41:26;4.63;;;3.50;;
55350;SDS011;62194;49.480;10.986;2023-08-06T00:41:31;4.87;;;3.67;;
55350;SDS011;62194;49.480;10.986;2023-08-06T00:41:37;4.50;;;3.70;;
55350;SDS011;62194;49.480;10.986;2023-08-06T00:41:42;4.57;;;3.60;;
55350;SDS011;62194;49.480;10.986;2023-08-06T00:41:47;4.73;;;3.60;;
55350;SDS011;62194;49.480;10.986;2023-08-06T00:41:52;4.97;;;3.67;;
55350;SDS011;62194;49.480;10.986;2023-08-06T00:41:57;5.20;;;3.97;;
55350;SDS011;62194;49.480;10.986;2023-08-06T00:42:03;5.05;;;3.97;;
55350;SDS011;62194;49.480;10.986;2023-08-06T00:42:09;4.70;;;4.00;;
55350;SDS011;62194;49.480;10.986;2023-08-06T00:42:14;4.75;;;4.20;;
55350;SDS011;62194;49.480;10.986;2023-08-06T00:42:21;4.50;;;4.07;;
55350;SDS011;62194;49.480;10.986;2023-08-06T00:42:27;4.20;;;3.80;;
55350;SDS011;62194;49.480;10.986;2023-08-06T00:42:32;4.27;;;3.73;;
55350;SDS011;62194;49.480;10.986;2023-08-06T00:42:37;4.70;;;3.70;;
55350;SDS011;62194;49.480;10.986;2023-08-06T00:42:42;4.63;;;3.63;;
55350;SDS011;62194;49.480;10.986;2023-08-06T00:42:49;4.73;;;3.63;;
55350;SDS011;62194;49.480;10.986;2023-08-06T00:42:55;4.67;;;3.77;;
55350;SDS011;62194;49.480;10.986;2023-08-06T00:43:00;4.40;;;3.70;;
55350;SDS011;62194;49.480;10.986;2023-08-06T00:43:05;4.03;;;3.67;;
55350;SDS011;62194;49.480;10.986;2023-08-06T00:43:10;3.95;;;3.58;;
55350;SDS011;62194;49.480;10.986;2023-08-06T00:43:16;4.10;;;3.70;;
55350;SDS011;62194;49.480;10.986;2023-08-06T00:43:21;4.20;;;3.80;;
55350;SDS011;62194;49.480;10.986;2023-08-06T00:43:26;4.10;;;3.70;;
55350;SDS011;62194;49.480;10.986;2023-08-06T00:43:31;4.40;;;3.87;;
55350;SDS011;62194;49.480;10.986;2023-08-06T00:43:36;4.63;;;4.00;;
55350;SDS011;62194;49.480;10.986;2023-08-06T00:43:42;5.88;;;3.92;;
55350;SDS011;62194;49.480;10.986;2023-08-06T00:43:47;5.87;;;3.80;;
55350;SDS011;62194;49.480;10.986;2023-08-06T00:43:52;5.90;;;3.80;;
55350;SDS011;62194;49.480;10.986;2023-08-06T00:44:00;7.00;;;3.80;;
55350;SDS011;62194;49.480;10.986;2023-08-06T00:44:05;7.22;;;3.68;;
55350;SDS011;62194;49.480;10.986;2023-08-06T00:44:10;5.60;;;3.60;;
55350;SDS011;62194;49.480;10.986;2023-08-06T00:44:15;5.57;;;3.60;;
55350;SDS011;62194;49.480;10.986;2023-08-06T00:44:20;5.22;;;3.47;;
55350;SDS011;62194;49.480;10.986;2023-08-06T00:44:26;4.47;;;3.43;;
55350;SDS011;62194;49.480;10.986;2023-08-06T00:44:31;3.73;;;3.40;;
55350;SDS011;62194;49.480;10.986;2023-08-06T00:44:36;4.00;;;3.40;;
55350;SDS011;62194;49.480;10.986;2023-08-06T00:44:42;4.10;;;3.50;;
55350;SDS011;62194;49.480;10.986;2023-08-06T00:44:49;4.00;;;3.50;;
55350;SDS011;62194;49.480;10.986;2023-08-06T00:44:55;4.17;;;3.53;;
55350;SDS011;62194;49.480;10.986;2023-08-06T00:45:00;5.30;;;3.47;;
55350;SDS011;62194;49.480;10.986;2023-08-06T00:45:06;4.88;;;3.42;;
55350;SDS011;62194;49.480;10.986;2023-08-06T00:45:11;4.80;;;3.30;;
55350;SDS011;62194;49.480;10.986;2023-08-06T00:45:16;4.70;;;3.27;;
55350;SDS011;62194;49.480;10.986;2023-08-06T00:45:21;4.53;;;3.10;;
55350;SDS011;62194;49.480;10.986;2023-08-06T00:45:27;4.20;;;3.00;;
55350;SDS011;62194;49.480;10.986;2023-08-06T00:45:33;3.33;;;3.03;;
55350;SDS011;62194;49.480;10.986;2023-08-06T00:45:39;3.60;;;3.14;;
55350;SDS011;62194;49.480;10.986;2023-08-06T00:45:44;4.00;;;3.30;;
55350;SDS011;62194;49.480;10.986;2023-08-06T00:45:49;4.03;;;3.40;;
55350;SDS011;62194;49.480;10.986;2023-08-06T00:45:55;4.43;;;3.70;;
55350;SDS011;62194;49.480;10.986;2023-08-06T00:46:00;4.72;;;3.70;;
55350;SDS011;62194;49.480;10.986;2023-08-06T00:46:06;4.60;;;3.77;;
55350;SDS011;62194;49.480;10.986;2023-08-06T00:46:11;4.30;;;3.70;;
55350;SDS011;62194;49.480;10.986;2023-08-06T00:46:17;4.50;;;3.60;;
55350;SDS011;62194;49.480;10.986;2023-08-06T00:46:22;4.43;;;3.53;;
55350;SDS011;62194;49.480;10.986;2023-08-06T00:46:27;4.15;;;3.45;;
55350;SDS011;62194;49.480;10.986;2023-08-06T00:46:32;4.30;;;3.60;;
55350;SDS011;62194;49.480;10.986;2023-08-06T00:46:38;4.40;;;3.58;;
55350;SDS011;62194;49.480;10.986;2023-08-06T00:46:43;4.00;;;3.57;;
55350;SDS011;62194;49.480;10.986;2023-08-06T00:46:48;3.90;;;3.50;;
55350;SDS011;62194;49.480;10.986;2023-08-06T00:46:54;4.07;;;3.57;;
55350;SDS011;62194;49.480;10.986;2023-08-06T00:46:59;3.80;;;3.40;;
55350;SDS011;62194;49.480;10.986;2023-08-06T00:47:06;3.80;;;3.40;;
55350;SDS011;62194;49.480;10.986;2023-08-06T00:47:12;3.97;;;3.48;;
55350;SDS011;62194;49.480;10.986;2023-08-06T00:47:17;4.00;;;3.50;;
55350;SDS011;62194;49.480;10.986;2023-08-06T00:47:23;3.90;;;3.50;;
55350;SDS011;62194;49.480;10.986;2023-08-06T00:47:28;4.13;;;3.60;;
55350;SDS011;62194;49.480;10.986;2023-08-06T00:47:33;6.53;;;3.57;;
55350;SDS011;62194;49.480;10.986;2023-08-06T00:47:39;6.93;;;3.60;;
55350;SDS011;62194;49.480;10.986;2023-08-06T00:47:44;6.95;;;3.65;;
55350;SDS011;62194;49.480;10.986;2023-08-06T00:47:50;6.90;;;3.50;;
55350;SDS011;62194;49.480;10.986;2023-08-06T00:47:56;6.85;;;3.50;;
55350;SDS011;62194;49.480;10.986;2023-08-06T00:48:02;4.17;;;3.47;;
55350;SDS011;62194;49.480;10.986;2023-08-06T00:48:08;4.12;;;3.40;;
55350;SDS011;62194;49.480;10.986;2023-08-06T00:48:14;3.80;;;3.37;;
55350;SDS011;62194;49.480;10.986;2023-08-06T00:48:19;3.95;;;3.55;;
55350;SDS011;62194;49.480;10.986;2023-08-06T00:48:25;4.00;;;3.60;;
55350;SDS011;62194;49.480;10.986;2023-08-06T00:48:31;4.13;;;3.67;;
55350;SDS011;62194;49.480;10.986;2023-08-06T00:48:36;4.03;;;3.60;;
55350;SDS011;62194;49.480;10.986;2023-08-06T00:48:41;4.40;;;3.70;;
55350;SDS011;62194;49.480;10.986;2023-08-06T00:48:46;4.67;;;3.77;;
55350;SDS011;62194;49.480;10.986;2023-08-06T00:48:52;4.68;;;3.80;;
55350;SDS011;62194;49.480;10.986;2023-08-06T00:48:57;4.67;;;3.77;;
55350;SDS011;62194;49.480;10.986;2023-08-06T00:49:02;4.70;;;3.70;;
55350;SDS011;62194;49.480;10.986;2023-08-06T00:49:08;4.90;;;3.67;;
55350;SDS011;62194;49.480;10.986;2023-08-06T00:49:13;4.10;;;3.63;;
55350;SDS011;62194;49.480;10.986;2023-08-06T00:49:18;4.07;;;3.63;;
55350;SDS011;62194;49.480;10.986;2023-08-06T00:49:24;4.10;;;3.70;;
55350;SDS011;62194;49.480;10.986;2023-08-06T00:49:29;4.05;;;3.63;;
55350;SDS011;62194;49.480;10.986;2023-08-06T00:49:35;4.13;;;3.73;;
55350;SDS011;62194;49.480;10.986;2023-08-06T00:49:40;4.07;;;3.67;;
55350;SDS011;62194;49.480;10.986;2023-08-06T00:49:45;4.00;;;3.60;;
55350;SDS011;62194;49.480;10.986;2023-08-06T00:49:50;4.00;;;3.60;;
55350;SDS011;62194;49.480;10.986;2023-08-06T00:49:56;4.03;;;3.63;;
55350;SDS011;62194;49.480;10.986;2023-08-06T00:50:01;4.20;;;3.70;;
55350;SDS011;62194;49.480;10.986;2023-08-06T00:50:07;4.30;;;3.67;;
55350;SDS011;62194;49.480;10.986;2023-08-06T00:50:13;4.10;;;3.70;;
55350;SDS011;62194;49.480;10.986;2023-08-06T00:50:18;4.03;;;3.60;;
55350;SDS011;62194;49.480;10.986;2023-08-06T00:50:23;4.07;;;3.63;;
55350;SDS011;62194;49.480;10.986;2023-08-06T00:50:28;4.03;;;3.50;;
55350;SDS011;62194;49.480;10.986;2023-08-06T00:50:34;3.85;;;3.40;;
55350;SDS011;62194;49.480;10.986;2023-08-06T00:50:39;4.00;;;3.37;;
55350;SDS011;62194;49.480;10.986;2023-08-06T00:50:44;3.97;;;3.27;;
55350;SDS011;62194;49.480;10.986;2023-08-06T00:50:49;3.83;;;3.27;;
55350;SDS011;62194;49.480;10.986;2023-08-06T00:50:55;3.38;;;3.08;;
55350;SDS011;62194;49.480;10.986;2023-08-06T00:51:00;3.33;;;3.03;;
55350;SDS011;62194;49.480;10.986;2023-08-06T00:51:06;3.67;;;3.20;;
55350;SDS011;62194;49.480;10.986;2023-08-06T00:51:11;3.97;;;3.33;;
55350;SDS011;62194;49.480;10.986;2023-08-06T00:51:16;3.90;;;3.40;;
55350;SDS011;62194;49.480;10.986;2023-08-06T00:51:22;4.00;;;3.43;;
55350;SDS011;62194;49.480;10.986;2023-08-06T00:51:27;4.05;;;3.47;;
55350;SDS011;62194;49.480;10.986;2023-08-06T00:51:32;3.97;;;3.33;;
55350;SDS011;62194;49.480;10.986;2023-08-06T00:51:37;3.73;;;3.40;;
55350;SDS011;62194;49.480;10.986;2023-08-06T00:51:42;3.55;;;3.25;;
55350;SDS011;62194;49.480;10.986;2023-08-06T00:51:48;3.50;;;3.20;;
55350;SDS011;62194;49.480;10.986;2023-08-06T00:51:53;3.47;;;3.17;;
55350;SDS011;62194;49.480;10.986;2023-08-06T00:51:58;3.57;;;3.27;;
55350;SDS011;62194;49.480;10.986;2023-08-06T00:52:04;3.60;;;3.30;;
55350;SDS011;62194;49.480;10.986;2023-08-06T00:52:10;3.60;;;3.30;;
55350;SDS011;62194;49.480;10.986;2023-08-06T00:52:15;3.60;;;3.30;;
55350;SDS011;62194;49.480;10.986;2023-08-06T00:52:20;3.57;;;3.27;;
55350;SDS011;62194;49.480;10.986;2023-08-06T00:52:25;3.65;;;3.35;;
55350;SDS011;62194;49.480;10.986;2023-08-06T00:52:31;3.67;;;3.37;;
55350;SDS011;62194;49.480;10.986;2023-08-06T00:52:36;4.67;;;3.43;;
55350;SDS011;62194;49.480;10.986;2023-08-06T00:52:41;4.80;;;3.50;;
55350;SDS011;62194;49.480;10.986;2023-08-06T00:52:47;5.20;;;3.60;;
55350;SDS011;62194;49.480;10.986;2023-08-06T00:52:52;5.10;;;3.50;;
55350;SDS011;62194;49.480;10.986;2023-08-06T00:52:57;5.30;;;3.45;;
55350;SDS011;62194;49.480;10.986;2023-08-06T00:53:03;5.23;;;3.40;;
55350;SDS011;62194;49.480;10.986;2023-08-06T00:53:08;4.38;;;3.42;;
55350;SDS011;62194;49.480;10.986;2023-08-06T00:53:14;4.63;;;3.53;;
55350;SDS011;62194;49.480;10.986;2023-08-06T00:53:19;4.73;;;3.53;;
55350;SDS011;62194;49.480;10.986;2023-08-06T00:53:24;4.80;;;3.50;;
55350;SDS011;62194;49.480;10.986;2023-08-06T00:53:30;4.63;;;3.53;;
55350;SDS011;62194;49.480;10.986;2023-08-06T00:53:35;4.63;;;3.50;;
55350;SDS011;62194;49.480;10.986;2023-08-06T00:53:40;5.28;;;3.45;;
55350;SDS011;62194;49.480;10.986;2023-08-06T00:53:46;5.43;;;3.40;;
55350;SDS011;62194;49.480;10.986;2023-08-06T00:53:52;5.10;;;3.37;;
55350;SDS011;62194;49.480;10.986;2023-08-06T00:53:57;5.10;;;3.40;;
55350;SDS011;62194;49.480;10.986;2023-08-06T00:54:03;5.03;;;3.30;;
55350;SDS011;62194;49.480;10.986;2023-08-06T00:54:08;4.83;;;3.27;;
55350;SDS011;62194;49.480;10.986;2023-08-06T00:54:14;3.90;;;3.30;;
55350;SDS011;62194;49.480;10.986;2023-08-06T00:54:19;3.78;;;3.30;;
55350;SDS011;62194;49.480;10.986;2023-08-06T00:54:25;3.70;;;3.23;;
55350;SDS011;62194;49.480;10.986;2023-08-06T00:54:30;3.88;;;3.45;;
55350;SDS011;62194;49.480;10.986;2023-08-06T00:54:36;3.83;;;3.43;;